createdAt,value
2023-01-27T00:02:12.880Z,100.00
2023-01-27T00:05:39.963Z,100.00
2023-01-27T00:09:07.390Z,100.00
2023-01-27T00:12:52.088Z,100.00
2023-01-27T00:16:19.222Z,100.00
2023-01-27T00:19:46.181Z,100.00
2023-01-27T00:23:35.941Z,100.00
2023-01-27T00:27:03.257Z,100.00
2023-01-27T00:30:30.264Z,100.00
2023-01-27T00:34:02.282Z,100.00
2023-01-27T00:37:29.465Z,100.00
2023-01-27T00:41:15.072Z,100.00
2023-01-27T00:45:03.553Z,100.00
2023-01-27T00:48:30.974Z,100.00
2023-01-27T00:51:58.050Z,100.00
2023-01-27T00:55:25.499Z,100.00
2023-01-27T00:58:52.610Z,100.00
2023-01-27T01:02:19.627Z,100.00
2023-01-27T01:05:47.130Z,100.00
2023-01-27T01:09:14.593Z,100.00
2023-01-27T01:12:41.679Z,100.00
2023-01-27T01:16:11.800Z,100.00
2023-01-27T01:19:39.554Z,100.00
2023-01-27T01:23:07.056Z,100.00
2023-01-27T01:26:34.702Z,100.00
2023-01-27T01:30:02.477Z,100.00
2023-01-27T01:33:29.844Z,100.00
2023-01-27T01:36:58.355Z,100.00
2023-01-27T01:40:26.109Z,100.00
2023-01-27T01:43:53.948Z,100.00
2023-01-27T01:47:21.786Z,100.00
2023-01-27T01:50:56.101Z,100.00
2023-01-27T01:54:27.044Z,100.00
2023-01-27T01:57:58.134Z,100.00
2023-01-27T02:01:25.193Z,100.00
2023-01-27T02:04:59.264Z,100.00
2023-01-27T02:08:30.744Z,100.00
2023-01-27T02:11:59.524Z,100.00
2023-01-27T02:15:26.911Z,100.00
2023-01-27T02:18:54.139Z,100.00
2023-01-27T02:22:27.211Z,100.00
2023-01-27T02:25:59.330Z,100.00
2023-01-27T02:29:28.886Z,100.00
2023-01-27T02:32:56.055Z,100.00
2023-01-27T02:36:28.665Z,100.00
2023-01-27T02:39:59.406Z,100.00
2023-01-27T02:43:27.346Z,100.00
2023-01-27T02:46:55.031Z,100.00
2023-01-27T02:50:22.216Z,100.00
2023-01-27T02:53:49.410Z,100.00
2023-01-27T02:57:16.345Z,100.00
2023-01-27T03:00:53.579Z,100.00
2023-01-27T03:04:20.866Z,100.00
2023-01-27T03:07:47.915Z,100.00
2023-01-27T03:11:15.261Z,100.00
2023-01-27T03:15:00.315Z,100.00
2023-01-27T03:18:28.741Z,100.00
2023-01-27T03:21:56.293Z,100.00
2023-01-27T03:25:25.218Z,100.00
2023-01-27T03:29:08.912Z,100.00
2023-01-27T03:32:38.677Z,100.00
2023-01-27T03:36:44.136Z,100.00
2023-01-27T03:40:32.732Z,100.00
2023-01-27T03:44:17.457Z,100.00
2023-01-27T03:47:44.709Z,100.00
2023-01-27T03:51:13.008Z,100.00
2023-01-27T03:54:40.297Z,100.00
2023-01-27T03:58:18.531Z,100.00
2023-01-27T04:01:45.673Z,100.00
2023-01-27T04:05:30.975Z,100.00
2023-01-27T04:08:58.886Z,100.00
2023-01-27T04:12:26.111Z,100.00
2023-01-27T04:15:56.901Z,100.00
2023-01-27T04:19:24.026Z,100.00
2023-01-27T04:22:51.031Z,100.00
2023-01-27T04:26:17.963Z,100.00
2023-01-27T04:29:45.705Z,100.00
2023-01-27T04:33:15.303Z,100.00
2023-01-27T04:36:42.972Z,100.00
2023-01-27T04:40:13.377Z,100.00
2023-01-27T04:43:40.356Z,100.00
2023-01-27T04:47:07.651Z,100.00
2023-01-27T04:50:34.837Z,100.00
2023-01-27T04:54:03.923Z,100.00
2023-01-27T04:57:31.249Z,100.00
2023-01-27T05:00:58.400Z,100.00
2023-01-27T05:04:26.510Z,100.00
2023-01-27T05:07:53.684Z,100.00
2023-01-27T05:11:21.399Z,100.00
2023-01-27T05:14:48.476Z,100.00
2023-01-27T05:18:15.924Z,100.00
2023-01-27T05:21:44.481Z,100.00
2023-01-27T05:25:12.528Z,100.00
2023-01-27T05:28:41.722Z,100.00
2023-01-27T05:32:08.927Z,100.00
2023-01-27T05:35:37.420Z,100.00
2023-01-27T05:39:05.277Z,100.00
2023-01-27T05:42:33.142Z,100.00
2023-01-27T05:46:12.316Z,100.00
2023-01-27T05:49:39.407Z,100.00
2023-01-27T05:53:06.516Z,100.00
2023-01-27T05:56:33.964Z,100.00
2023-01-27T06:00:00.893Z,100.00
2023-01-27T06:03:28.448Z,100.00
2023-01-27T06:06:55.459Z,100.00
2023-01-27T06:10:22.324Z,100.00
2023-01-27T06:13:49.792Z,100.00
2023-01-27T06:17:17.598Z,100.00
2023-01-27T06:20:45.248Z,100.00
2023-01-27T06:24:13.737Z,100.00
2023-01-27T06:27:41.084Z,100.00
2023-01-27T06:31:12.901Z,100.00
2023-01-27T06:34:40.246Z,100.00
2023-01-27T06:38:08.916Z,100.00
2023-01-27T06:41:35.931Z,100.00
2023-01-27T06:45:03.017Z,100.00
2023-01-27T06:48:30.388Z,100.00
2023-01-27T06:51:57.449Z,100.00
2023-01-27T06:55:24.730Z,100.00
2023-01-27T06:58:51.863Z,100.00
2023-01-27T07:02:19.056Z,100.00
2023-01-27T07:05:46.877Z,100.00
2023-01-27T07:09:13.960Z,100.00
2023-01-27T07:12:40.962Z,100.00
2023-01-27T07:16:08.836Z,100.00
2023-01-27T07:19:36.079Z,100.00
2023-01-27T07:23:04.852Z,100.00
2023-01-27T07:26:32.337Z,100.00
2023-01-27T07:29:59.359Z,100.00
2023-01-27T07:33:27.056Z,100.00
2023-01-27T07:36:54.302Z,100.00
2023-01-27T07:40:22.387Z,100.00
2023-01-27T07:43:51.654Z,100.00
2023-01-27T07:47:19.504Z,100.00
2023-01-27T07:50:46.604Z,100.00
2023-01-27T07:54:13.916Z,100.00
2023-01-27T07:57:40.808Z,100.00
2023-01-27T08:01:09.906Z,100.00
2023-01-27T08:04:47.204Z,100.00
2023-01-27T08:08:20.279Z,100.00
2023-01-27T08:11:47.241Z,100.00
2023-01-27T08:15:17.703Z,100.00
2023-01-27T08:18:45.919Z,100.00
2023-01-27T08:22:19.813Z,100.00
2023-01-27T08:25:52.120Z,100.00
2023-01-27T08:29:19.135Z,100.00
2023-01-27T08:32:46.592Z,100.00
2023-01-27T08:36:16.852Z,100.00
2023-01-27T08:39:44.021Z,100.00
2023-01-27T08:43:11.860Z,100.00
2023-01-27T08:46:38.832Z,100.00
2023-01-27T08:50:06.748Z,100.00
2023-01-27T08:53:34.032Z,100.00
2023-01-27T08:57:01.117Z,100.00
2023-01-27T09:00:28.555Z,100.00
2023-01-27T09:03:55.543Z,100.00
2023-01-27T09:07:23.033Z,100.00
2023-01-27T09:10:50.066Z,100.00
2023-01-27T09:14:17.195Z,100.00
2023-01-27T09:17:45.218Z,100.00
2023-01-27T09:21:12.581Z,100.00
2023-01-27T09:24:39.567Z,100.00
2023-01-27T09:28:06.821Z,100.00
2023-01-27T09:31:34.555Z,100.00
2023-01-27T09:35:02.173Z,100.00
2023-01-27T09:38:32.659Z,100.00
2023-01-27T09:42:21.132Z,100.00
2023-01-27T09:46:03.066Z,100.00
2023-01-27T09:49:43.317Z,100.00
2023-01-27T09:53:27.563Z,100.00
2023-01-27T09:57:06.751Z,100.00
2023-01-27T10:00:44.841Z,100.00
2023-01-27T10:04:31.521Z,100.00
2023-01-27T10:08:29.954Z,100.00
2023-01-27T10:12:07.192Z,100.00
2023-01-27T10:15:45.168Z,98.36
2023-01-27T10:19:31.777Z,95.82
2023-01-27T10:23:10.406Z,95.22
2023-01-27T10:26:43.188Z,94.44
2023-01-27T10:30:15.348Z,94.21
2023-01-27T10:33:51.827Z,93.25
2023-01-27T10:37:28.445Z,94.53
2023-01-27T10:41:06.135Z,96.31
2023-01-27T10:44:59.849Z,96.11
2023-01-27T10:48:35.956Z,95.01
2023-01-27T10:52:10.017Z,95.77
2023-01-27T10:55:43.332Z,95.50
2023-01-27T10:59:18.033Z,95.49
2023-01-27T11:02:51.024Z,95.37
2023-01-27T11:06:21.510Z,94.84
2023-01-27T11:09:56.702Z,94.50
2023-01-27T11:13:23.722Z,95.03
2023-01-27T11:16:52.653Z,94.12
2023-01-27T11:20:30.824Z,94.71
2023-01-27T11:24:02.140Z,93.90
2023-01-27T11:27:50.343Z,93.93
2023-01-27T11:31:37.701Z,93.00
2023-01-27T11:35:10.379Z,92.65
2023-01-27T11:38:38.174Z,93.70
2023-01-27T11:42:06.695Z,91.12
2023-01-27T11:45:38.196Z,90.63
2023-01-27T11:49:06.388Z,90.66
2023-01-27T11:52:34.322Z,88.85
2023-01-27T11:56:05.855Z,89.12
2023-01-27T11:59:39.626Z,89.53
2023-01-27T12:03:17.749Z,88.70
2023-01-27T12:06:48.682Z,89.36
2023-01-27T12:10:30.582Z,89.62
2023-01-27T12:14:00.207Z,89.90
2023-01-27T12:17:34.222Z,90.27
2023-01-27T12:21:03.511Z,90.92
2023-01-27T12:24:33.676Z,89.82
2023-01-27T12:28:04.147Z,90.28
2023-01-27T12:31:34.363Z,90.89
2023-01-27T12:35:03.432Z,91.09
2023-01-27T12:38:35.849Z,91.38
2023-01-27T12:42:03.016Z,90.98
2023-01-27T12:45:35.036Z,88.55
2023-01-27T12:49:14.719Z,88.86
2023-01-27T12:52:40.248Z,89.29
2023-01-27T12:56:16.126Z,90.23
2023-01-27T12:59:49.699Z,90.83
2023-01-27T13:03:17.484Z,90.63
2023-01-27T13:06:50.430Z,91.31
2023-01-27T13:10:23.558Z,91.33
2023-01-27T13:13:53.864Z,91.66
2023-01-27T13:17:37.588Z,91.45
2023-01-27T13:21:14.337Z,91.28
2023-01-27T13:24:43.840Z,91.56
2023-01-27T13:28:15.163Z,90.80
2023-01-27T13:31:47.191Z,90.50
2023-01-27T13:35:23.900Z,89.58
2023-01-27T13:38:56.863Z,90.21
2023-01-27T13:42:30.134Z,90.09
2023-01-27T13:46:03.867Z,90.44
2023-01-27T13:49:37.875Z,90.82
2023-01-27T13:53:07.165Z,90.94
2023-01-27T13:56:49.612Z,91.47
2023-01-27T14:00:23.984Z,91.60
2023-01-27T14:04:24.048Z,91.38
2023-01-27T14:07:59.411Z,91.49
2023-01-27T14:11:33.931Z,91.53
2023-01-27T14:15:16.026Z,92.01
2023-01-27T14:18:47.885Z,92.50
2023-01-27T14:22:25.604Z,92.73
2023-01-27T14:26:07.636Z,93.51
2023-01-27T14:29:40.620Z,93.85
2023-01-27T14:33:16.898Z,94.55
2023-01-27T14:36:52.907Z,94.53
2023-01-27T14:40:27.594Z,94.95
2023-01-27T14:44:03.609Z,95.11
2023-01-27T14:47:40.031Z,95.61
2023-01-27T14:51:15.715Z,95.86
2023-01-27T14:55:05.297Z,96.17
2023-01-27T14:58:43.923Z,96.72
2023-01-27T15:02:29.706Z,97.02
2023-01-27T15:06:03.993Z,97.58
2023-01-27T15:09:43.784Z,97.85
2023-01-27T15:13:33.265Z,97.95
2023-01-27T15:17:21.945Z,98.45
2023-01-27T15:21:18.695Z,98.42
2023-01-27T15:25:02.616Z,98.62
2023-01-27T15:28:32.920Z,98.96
2023-01-27T15:32:29.391Z,99.25
2023-01-27T15:36:20.754Z,99.52
2023-01-27T15:40:05.497Z,99.81
2023-01-27T15:43:38.051Z,100.00
2023-01-27T15:47:13.859Z,100.00
2023-01-27T15:50:50.335Z,100.00
2023-01-27T15:54:20.560Z,100.00
2023-01-27T15:57:47.753Z,100.00
2023-01-27T16:01:27.991Z,100.00
2023-01-27T16:05:06.723Z,100.00
2023-01-27T16:08:43.056Z,100.00
2023-01-27T16:12:39.802Z,100.00
2023-01-27T16:16:33.952Z,100.00
2023-01-27T16:20:23.263Z,100.00
2023-01-27T16:23:57.662Z,100.00
2023-01-27T16:27:39.435Z,100.00
2023-01-27T16:31:13.989Z,100.00
2023-01-27T16:34:46.513Z,100.00
2023-01-27T16:38:25.501Z,100.00
2023-01-27T16:41:57.871Z,100.00
2023-01-27T16:45:27.698Z,100.00
2023-01-27T16:48:55.344Z,100.00
2023-01-27T16:52:40.423Z,100.00
2023-01-27T16:56:18.964Z,100.00
2023-01-27T16:59:48.077Z,100.00
2023-01-27T17:03:20.315Z,100.00
2023-01-27T17:06:47.745Z,100.00
2023-01-27T17:10:32.982Z,100.00
2023-01-27T17:14:03.328Z,100.00
2023-01-27T17:17:35.515Z,100.00
2023-01-27T17:21:03.751Z,100.00
2023-01-27T17:24:34.445Z,100.00
2023-01-27T17:28:04.135Z,100.00
2023-01-27T17:31:33.041Z,100.00
2023-01-27T17:35:02.964Z,100.00
2023-01-27T17:38:43.835Z,100.00
2023-01-27T17:42:17.070Z,100.00
2023-01-27T17:45:45.212Z,100.00
2023-01-27T17:49:17.606Z,100.00
2023-01-27T17:52:52.405Z,100.00
2023-01-27T17:56:23.197Z,100.00
2023-01-27T17:59:58.622Z,99.99
2023-01-27T18:03:28.257Z,99.83
2023-01-27T18:06:55.908Z,99.93
2023-01-27T18:10:29.351Z,99.84
2023-01-27T18:13:56.962Z,99.71
2023-01-27T18:17:27.651Z,99.70
2023-01-27T18:21:06.740Z,99.56
2023-01-27T18:24:34.447Z,99.84
2023-01-27T18:28:02.041Z,99.82
2023-01-27T18:31:32.240Z,99.95
2023-01-27T18:35:00.527Z,99.75
2023-01-27T18:38:31.097Z,99.63
2023-01-27T18:41:58.152Z,99.15
2023-01-27T18:45:25.592Z,97.79
2023-01-27T18:48:53.331Z,97.02
2023-01-27T18:52:20.739Z,95.07
2023-01-27T18:55:48.365Z,94.01
2023-01-27T18:59:15.530Z,93.38
2023-01-27T19:02:46.502Z,91.67
2023-01-27T19:06:19.157Z,91.21
2023-01-27T19:09:47.662Z,90.78
2023-01-27T19:13:15.799Z,90.74
2023-01-27T19:16:43.139Z,90.82
2023-01-27T19:20:19.792Z,90.72
2023-01-27T19:23:49.579Z,89.56
2023-01-27T19:27:19.077Z,89.69
2023-01-27T19:30:46.916Z,89.42
2023-01-27T19:34:16.714Z,89.81
2023-01-27T19:37:44.550Z,89.24
2023-01-27T19:41:12.499Z,88.21
2023-01-27T19:44:39.735Z,88.63
2023-01-27T19:48:12.312Z,89.08
2023-01-27T19:51:39.665Z,89.08
2023-01-27T19:55:09.251Z,89.52
2023-01-27T19:58:37.725Z,88.63
2023-01-27T20:02:06.416Z,89.06
2023-01-27T20:05:35.734Z,89.16
2023-01-27T20:09:06.136Z,89.69
2023-01-27T20:12:36.383Z,88.47
2023-01-27T20:16:05.749Z,88.02
2023-01-27T20:19:33.813Z,87.66
2023-01-27T20:23:03.029Z,87.76
2023-01-27T20:26:32.535Z,88.38
2023-01-27T20:30:01.373Z,87.83
2023-01-27T20:33:28.850Z,87.48
2023-01-27T20:36:57.877Z,87.92
2023-01-27T20:40:28.667Z,88.26
2023-01-27T20:44:00.755Z,87.38
2023-01-27T20:47:29.120Z,87.56
2023-01-27T20:51:06.107Z,87.68
2023-01-27T20:54:33.973Z,87.64
2023-01-27T20:58:02.272Z,87.82
2023-01-27T21:01:29.664Z,88.12
2023-01-27T21:04:57.677Z,88.23
2023-01-27T21:08:25.334Z,88.16
2023-01-27T21:11:53.141Z,88.12
2023-01-27T21:15:20.611Z,88.23
2023-01-27T21:18:48.359Z,88.46
2023-01-27T21:22:16.758Z,88.55
2023-01-27T21:25:44.625Z,87.72
2023-01-27T21:29:13.528Z,87.70
2023-01-27T21:32:40.863Z,88.31
2023-01-27T21:36:10.983Z,88.37
2023-01-27T21:39:38.126Z,87.55
2023-01-27T21:43:22.943Z,87.71
2023-01-27T21:46:50.431Z,86.97
2023-01-27T21:50:18.831Z,87.51
2023-01-27T21:53:45.873Z,87.31
2023-01-27T21:57:12.959Z,86.38
2023-01-27T22:00:40.273Z,86.39
2023-01-27T22:04:08.021Z,85.89
2023-01-27T22:07:38.333Z,85.82
2023-01-27T22:11:12.273Z,85.25
2023-01-27T22:14:39.567Z,85.81
2023-01-27T22:18:08.920Z,85.91
2023-01-27T22:21:35.939Z,85.85
2023-01-27T22:25:03.051Z,85.38
2023-01-27T22:28:30.215Z,85.62
2023-01-27T22:31:57.549Z,85.83
2023-01-27T22:35:24.641Z,86.17
2023-01-27T22:38:51.853Z,85.99
2023-01-27T22:42:18.824Z,85.54
2023-01-27T22:45:45.928Z,86.31
2023-01-27T22:49:13.032Z,86.39
2023-01-27T22:52:40.698Z,86.35
2023-01-27T22:56:09.579Z,85.65
2023-01-27T22:59:36.556Z,85.24
2023-01-27T23:03:04.056Z,85.37
2023-01-27T23:06:31.059Z,84.93
2023-01-27T23:09:58.108Z,84.06
2023-01-27T23:13:25.011Z,83.71
2023-01-27T23:16:53.003Z,84.07
2023-01-27T23:20:20.727Z,84.15
2023-01-27T23:23:47.868Z,84.17
2023-01-27T23:27:14.822Z,84.14
2023-01-27T23:30:43.663Z,84.79
2023-01-27T23:34:11.081Z,84.84
2023-01-27T23:37:38.196Z,84.02
2023-01-27T23:41:08.224Z,84.56
2023-01-27T23:44:35.183Z,83.72
2023-01-27T23:48:02.245Z,83.15
2023-01-27T23:51:29.251Z,82.86
2023-01-27T23:54:56.403Z,83.46
2023-01-27T23:58:23.979Z,82.98
